sensor_id;sensor_type;location;lat;lon;timestamp;temperature;humidity
19945;DHT22;10134;50.952;6.930;2023-02-26T00:01:37;2.70;99.90
19945;DHT22;10134;50.952;6.930;2023-02-26T00:04:06;2.60;99.90
19945;DHT22;10134;50.952;6.930;2023-02-26T00:06:36;2.70;99.90
19945;DHT22;10134;50.952;6.930;2023-02-26T00:09:04;2.70;99.90
19945;DHT22;10134;50.952;6.930;2023-02-26T00:11:32;2.60;99.90
19945;DHT22;10134;50.952;6.930;2023-02-26T00:14:00;2.70;99.90
19945;DHT22;10134;50.952;6.930;2023-02-26T00:16:33;2.70;99.90
19945;DHT22;10134;50.952;6.930;2023-02-26T00:19:04;2.70;99.90
19945;DHT22;10134;50.952;6.930;2023-02-26T00:21:33;2.70;99.90
19945;DHT22;10134;50.952;6.930;2023-02-26T00:24:01;2.80;99.90
19945;DHT22;10134;50.952;6.930;2023-02-26T00:26:30;2.80;99.90
19945;DHT22;10134;50.952;6.930;2023-02-26T00:28:58;2.80;99.90
19945;DHT22;10134;50.952;6.930;2023-02-26T00:31:26;2.80;99.90
19945;DHT22;10134;50.952;6.930;2023-02-26T00:33:56;2.90;99.90
19945;DHT22;10134;50.952;6.930;2023-02-26T00:36:33;2.90;99.90
19945;DHT22;10134;50.952;6.930;2023-02-26T00:41:55;2.90;99.90
19945;DHT22;10134;50.952;6.930;2023-02-26T00:44:23;3.00;99.90
19945;DHT22;10134;50.952;6.930;2023-02-26T00:47:03;2.90;99.90
19945;DHT22;10134;50.952;6.930;2023-02-26T00:49:46;3.00;99.90
19945;DHT22;10134;50.952;6.930;2023-02-26T00:52:27;2.90;99.90
19945;DHT22;10134;50.952;6.930;2023-02-26T00:54:55;3.00;99.90
19945;DHT22;10134;50.952;6.930;2023-02-26T00:57:22;3.00;99.90
19945;DHT22;10134;50.952;6.930;2023-02-26T00:59:50;3.00;99.90
19945;DHT22;10134;50.952;6.930;2023-02-26T01:02:18;3.00;99.90
19945;DHT22;10134;50.952;6.930;2023-02-26T01:04:46;3.00;99.90
19945;DHT22;10134;50.952;6.930;2023-02-26T01:07:17;3.00;99.90
19945;DHT22;10134;50.952;6.930;2023-02-26T01:09:46;3.00;99.90
19945;DHT22;10134;50.952;6.930;2023-02-26T01:12:13;3.10;99.90
19945;DHT22;10134;50.952;6.930;2023-02-26T01:14:44;3.10;99.90
19945;DHT22;10134;50.952;6.930;2023-02-26T01:17:30;3.00;99.90
19945;DHT22;10134;50.952;6.930;2023-02-26T01:20:02;3.00;99.90
19945;DHT22;10134;50.952;6.930;2023-02-26T01:25:14;2.90;99.90
19945;DHT22;10134;50.952;6.930;2023-02-26T01:27:42;2.90;99.90
19945;DHT22;10134;50.952;6.930;2023-02-26T01:30:10;2.80;99.90
19945;DHT22;10134;50.952;6.930;2023-02-26T01:33:01;2.80;99.90
19945;DHT22;10134;50.952;6.930;2023-02-26T01:35:52;2.80;99.90
19945;DHT22;10134;50.952;6.930;2023-02-26T01:38:49;2.70;99.90
19945;DHT22;10134;50.952;6.930;2023-02-26T01:41:38;2.70;99.90
19945;DHT22;10134;50.952;6.930;2023-02-26T01:46:49;2.60;99.90
19945;DHT22;10134;50.952;6.930;2023-02-26T01:49:19;2.60;99.90
19945;DHT22;10134;50.952;6.930;2023-02-26T01:51:52;2.60;99.90
19945;DHT22;10134;50.952;6.930;2023-02-26T01:54:22;2.50;99.90
19945;DHT22;10134;50.952;6.930;2023-02-26T01:57:10;2.60;99.90
19945;DHT22;10134;50.952;6.930;2023-02-26T01:59:41;2.50;99.90
19945;DHT22;10134;50.952;6.930;2023-02-26T02:02:11;2.50;99.90
19945;DHT22;10134;50.952;6.930;2023-02-26T02:04:39;2.60;99.90
19945;DHT22;10134;50.952;6.930;2023-02-26T02:07:08;2.60;99.90
19945;DHT22;10134;50.952;6.930;2023-02-26T02:09:35;2.60;99.90
19945;DHT22;10134;50.952;6.930;2023-02-26T02:12:31;2.60;99.90
19945;DHT22;10134;50.952;6.930;2023-02-26T02:20:41;2.60;99.90
19945;DHT22;10134;50.952;6.930;2023-02-26T02:34:29;2.40;99.90
19945;DHT22;10134;50.952;6.930;2023-02-26T02:37:26;2.50;99.90
19945;DHT22;10134;50.952;6.930;2023-02-26T02:40:04;2.50;99.90
19945;DHT22;10134;50.952;6.930;2023-02-26T02:43:02;2.40;99.90
19945;DHT22;10134;50.952;6.930;2023-02-26T02:48:05;2.40;99.90
19945;DHT22;10134;50.952;6.930;2023-02-26T02:50:43;2.30;99.90
19945;DHT22;10134;50.952;6.930;2023-02-26T02:53:17;2.30;99.90
19945;DHT22;10134;50.952;6.930;2023-02-26T02:56:03;2.30;99.90
19945;DHT22;10134;50.952;6.930;2023-02-26T02:58:38;2.30;99.90
19945;DHT22;10134;50.952;6.930;2023-02-26T03:01:11;2.30;99.90
19945;DHT22;10134;50.952;6.930;2023-02-26T03:03:49;2.20;99.90
19945;DHT22;10134;50.952;6.930;2023-02-26T03:06:18;2.20;99.90
19945;DHT22;10134;50.952;6.930;2023-02-26T03:08:49;2.20;99.90
19945;DHT22;10134;50.952;6.930;2023-02-26T03:11:18;2.20;99.90
19945;DHT22;10134;50.952;6.930;2023-02-26T03:13:47;2.20;99.90
19945;DHT22;10134;50.952;6.930;2023-02-26T03:16:26;2.20;99.90
19945;DHT22;10134;50.952;6.930;2023-02-26T03:30:15;2.00;99.90
19945;DHT22;10134;50.952;6.930;2023-02-26T03:33:02;2.00;99.90
19945;DHT22;10134;50.952;6.930;2023-02-26T03:35:40;2.00;99.90
19945;DHT22;10134;50.952;6.930;2023-02-26T03:38:14;2.00;99.90
19945;DHT22;10134;50.952;6.930;2023-02-26T03:40:52;2.00;99.90
19945;DHT22;10134;50.952;6.930;2023-02-26T03:45:59;2.00;99.90
19945;DHT22;10134;50.952;6.930;2023-02-26T03:48:29;2.00;99.90
19945;DHT22;10134;50.952;6.930;2023-02-26T03:51:02;1.90;99.90
19945;DHT22;10134;50.952;6.930;2023-02-26T03:53:59;1.90;99.90
19945;DHT22;10134;50.952;6.930;2023-02-26T03:56:39;1.90;99.90
19945;DHT22;10134;50.952;6.930;2023-02-26T03:59:14;1.90;99.90
19945;DHT22;10134;50.952;6.930;2023-02-26T04:07:13;1.90;99.90
19945;DHT22;10134;50.952;6.930;2023-02-26T04:09:42;1.90;99.90
19945;DHT22;10134;50.952;6.930;2023-02-26T04:12:09;1.90;99.90
19945;DHT22;10134;50.952;6.930;2023-02-26T04:14:41;1.90;99.90
19945;DHT22;10134;50.952;6.930;2023-02-26T04:17:08;1.90;99.90
19945;DHT22;10134;50.952;6.930;2023-02-26T04:19:36;1.90;99.90
19945;DHT22;10134;50.952;6.930;2023-02-26T04:22:03;1.90;99.90
19945;DHT22;10134;50.952;6.930;2023-02-26T04:24:31;1.80;99.90
19945;DHT22;10134;50.952;6.930;2023-02-26T04:27:00;1.80;99.90
19945;DHT22;10134;50.952;6.930;2023-02-26T04:29:29;1.80;99.90
19945;DHT22;10134;50.952;6.930;2023-02-26T04:31:56;1.80;99.90
19945;DHT22;10134;50.952;6.930;2023-02-26T04:34:24;1.80;99.90
19945;DHT22;10134;50.952;6.930;2023-02-26T04:36:52;1.80;99.90
19945;DHT22;10134;50.952;6.930;2023-02-26T04:39:19;1.80;99.90
19945;DHT22;10134;50.952;6.930;2023-02-26T04:41:47;1.80;99.90
19945;DHT22;10134;50.952;6.930;2023-02-26T04:44:14;1.80;99.90
19945;DHT22;10134;50.952;6.930;2023-02-26T04:46:42;1.70;99.90
19945;DHT22;10134;50.952;6.930;2023-02-26T04:49:11;1.70;99.90
19945;DHT22;10134;50.952;6.930;2023-02-26T04:51:42;1.80;99.90
19945;DHT22;10134;50.952;6.930;2023-02-26T04:54:11;1.70;99.90
19945;DHT22;10134;50.952;6.930;2023-02-26T04:56:38;1.70;99.90
19945;DHT22;10134;50.952;6.930;2023-02-26T04:59:05;1.70;99.90
19945;DHT22;10134;50.952;6.930;2023-02-26T05:01:34;1.70;99.90
19945;DHT22;10134;50.952;6.930;2023-02-26T05:04:04;1.70;99.90
19945;DHT22;10134;50.952;6.930;2023-02-26T05:06:31;1.60;99.90
19945;DHT22;10134;50.952;6.930;2023-02-26T05:08:59;1.60;99.90
19945;DHT22;10134;50.952;6.930;2023-02-26T05:11:26;1.60;99.90
19945;DHT22;10134;50.952;6.930;2023-02-26T05:13:53;1.60;99.90
19945;DHT22;10134;50.952;6.930;2023-02-26T05:16:20;1.60;99.90
19945;DHT22;10134;50.952;6.930;2023-02-26T05:18:48;1.60;99.90
19945;DHT22;10134;50.952;6.930;2023-02-26T05:21:16;1.60;99.90
19945;DHT22;10134;50.952;6.930;2023-02-26T05:23:44;1.60;99.90
19945;DHT22;10134;50.952;6.930;2023-02-26T05:26:11;1.60;99.90
19945;DHT22;10134;50.952;6.930;2023-02-26T05:28:38;1.60;99.90
19945;DHT22;10134;50.952;6.930;2023-02-26T05:31:06;1.60;99.90
19945;DHT22;10134;50.952;6.930;2023-02-26T05:33:34;1.50;99.90
19945;DHT22;10134;50.952;6.930;2023-02-26T05:36:01;1.50;99.90
19945;DHT22;10134;50.952;6.930;2023-02-26T05:38:28;1.50;99.90
19945;DHT22;10134;50.952;6.930;2023-02-26T05:40:57;1.50;99.90
19945;DHT22;10134;50.952;6.930;2023-02-26T05:43:25;1.50;99.90
19945;DHT22;10134;50.952;6.930;2023-02-26T05:45:53;1.40;99.90
19945;DHT22;10134;50.952;6.930;2023-02-26T05:48:22;1.40;99.90
19945;DHT22;10134;50.952;6.930;2023-02-26T05:50:50;1.40;99.90
19945;DHT22;10134;50.952;6.930;2023-02-26T05:53:17;1.40;99.90
19945;DHT22;10134;50.952;6.930;2023-02-26T05:55:45;1.30;99.90
19945;DHT22;10134;50.952;6.930;2023-02-26T05:58:12;1.30;99.90
19945;DHT22;10134;50.952;6.930;2023-02-26T06:00:39;1.40;99.90
19945;DHT22;10134;50.952;6.930;2023-02-26T06:03:07;1.30;99.90
19945;DHT22;10134;50.952;6.930;2023-02-26T06:05:34;1.30;99.90
19945;DHT22;10134;50.952;6.930;2023-02-26T06:08:03;1.30;99.90
19945;DHT22;10134;50.952;6.930;2023-02-26T06:10:31;1.30;99.90
19945;DHT22;10134;50.952;6.930;2023-02-26T06:12:58;1.30;99.90
19945;DHT22;10134;50.952;6.930;2023-02-26T06:15:26;1.30;99.90
19945;DHT22;10134;50.952;6.930;2023-02-26T06:17:53;1.30;99.90
19945;DHT22;10134;50.952;6.930;2023-02-26T06:20:20;1.30;99.90
19945;DHT22;10134;50.952;6.930;2023-02-26T06:22:48;1.20;99.90
19945;DHT22;10134;50.952;6.930;2023-02-26T06:25:15;1.20;99.90
19945;DHT22;10134;50.952;6.930;2023-02-26T06:27:42;1.20;99.90
19945;DHT22;10134;50.952;6.930;2023-02-26T06:30:10;1.20;99.90
19945;DHT22;10134;50.952;6.930;2023-02-26T06:32:38;1.20;99.90
19945;DHT22;10134;50.952;6.930;2023-02-26T06:35:05;1.20;99.90
19945;DHT22;10134;50.952;6.930;2023-02-26T06:37:33;1.20;99.90
19945;DHT22;10134;50.952;6.930;2023-02-26T06:40:00;1.20;99.90
19945;DHT22;10134;50.952;6.930;2023-02-26T06:42:28;1.20;99.90
19945;DHT22;10134;50.952;6.930;2023-02-26T06:44:55;1.30;99.90
19945;DHT22;10134;50.952;6.930;2023-02-26T06:47:23;1.30;99.90
19945;DHT22;10134;50.952;6.930;2023-02-26T06:49:50;1.30;99.90
19945;DHT22;10134;50.952;6.930;2023-02-26T06:52:18;1.30;99.90
19945;DHT22;10134;50.952;6.930;2023-02-26T06:54:45;1.30;99.90
19945;DHT22;10134;50.952;6.930;2023-02-26T06:57:13;1.30;99.90
19945;DHT22;10134;50.952;6.930;2023-02-26T06:59:40;1.30;99.90
19945;DHT22;10134;50.952;6.930;2023-02-26T07:02:15;1.30;99.90
19945;DHT22;10134;50.952;6.930;2023-02-26T07:04:42;1.30;99.90
19945;DHT22;10134;50.952;6.930;2023-02-26T07:07:10;1.30;99.90
19945;DHT22;10134;50.952;6.930;2023-02-26T07:09:38;1.30;99.90
19945;DHT22;10134;50.952;6.930;2023-02-26T07:12:05;1.40;99.90
19945;DHT22;10134;50.952;6.930;2023-02-26T07:14:36;1.40;99.90
19945;DHT22;10134;50.952;6.930;2023-02-26T07:17:03;1.40;99.90
19945;DHT22;10134;50.952;6.930;2023-02-26T07:19:31;1.50;99.90
19945;DHT22;10134;50.952;6.930;2023-02-26T07:21:58;1.50;99.90
19945;DHT22;10134;50.952;6.930;2023-02-26T07:24:25;1.50;99.90
19945;DHT22;10134;50.952;6.930;2023-02-26T07:26:52;1.60;99.90
19945;DHT22;10134;50.952;6.930;2023-02-26T07:29:20;1.60;99.90
19945;DHT22;10134;50.952;6.930;2023-02-26T07:31:47;1.60;99.90
19945;DHT22;10134;50.952;6.930;2023-02-26T07:34:15;1.60;99.90
19945;DHT22;10134;50.952;6.930;2023-02-26T07:36:42;1.70;99.90
19945;DHT22;10134;50.952;6.930;2023-02-26T07:39:10;1.70;99.90
19945;DHT22;10134;50.952;6.930;2023-02-26T07:41:37;1.80;99.90
19945;DHT22;10134;50.952;6.930;2023-02-26T07:44:12;1.80;99.90
19945;DHT22;10134;50.952;6.930;2023-02-26T07:46:40;1.80;99.90
19945;DHT22;10134;50.952;6.930;2023-02-26T07:49:07;1.80;99.90
19945;DHT22;10134;50.952;6.930;2023-02-26T07:51:35;1.80;99.90
19945;DHT22;10134;50.952;6.930;2023-02-26T07:54:03;1.90;99.90
19945;DHT22;10134;50.952;6.930;2023-02-26T07:56:31;1.90;99.90
19945;DHT22;10134;50.952;6.930;2023-02-26T07:58:58;1.90;99.90
19945;DHT22;10134;50.952;6.930;2023-02-26T08:01:25;2.00;99.90
19945;DHT22;10134;50.952;6.930;2023-02-26T08:03:52;2.00;99.90
19945;DHT22;10134;50.952;6.930;2023-02-26T08:06:20;2.10;99.90
19945;DHT22;10134;50.952;6.930;2023-02-26T08:08:47;2.10;99.90
19945;DHT22;10134;50.952;6.930;2023-02-26T08:11:14;2.20;99.90
19945;DHT22;10134;50.952;6.930;2023-02-26T08:13:42;2.20;99.90
19945;DHT22;10134;50.952;6.930;2023-02-26T08:16:09;2.30;99.90
19945;DHT22;10134;50.952;6.930;2023-02-26T08:18:36;2.30;99.90
19945;DHT22;10134;50.952;6.930;2023-02-26T08:21:04;2.40;99.90
19945;DHT22;10134;50.952;6.930;2023-02-26T08:23:32;2.40;99.90
19945;DHT22;10134;50.952;6.930;2023-02-26T08:26:04;2.40;99.90
19945;DHT22;10134;50.952;6.930;2023-02-26T08:28:32;2.40;99.90
19945;DHT22;10134;50.952;6.930;2023-02-26T08:31:00;2.50;99.90
19945;DHT22;10134;50.952;6.930;2023-02-26T08:33:28;2.50;99.90
19945;DHT22;10134;50.952;6.930;2023-02-26T08:35:56;2.50;99.90
19945;DHT22;10134;50.952;6.930;2023-02-26T08:38:26;2.60;99.90
19945;DHT22;10134;50.952;6.930;2023-02-26T08:40:54;2.60;99.90
19945;DHT22;10134;50.952;6.930;2023-02-26T08:43:21;2.70;99.90
19945;DHT22;10134;50.952;6.930;2023-02-26T08:45:51;2.70;99.90
19945;DHT22;10134;50.952;6.930;2023-02-26T08:48:19;2.80;99.90
19945;DHT22;10134;50.952;6.930;2023-02-26T08:50:47;2.80;99.90
19945;DHT22;10134;50.952;6.930;2023-02-26T08:53:14;2.90;99.90
19945;DHT22;10134;50.952;6.930;2023-02-26T08:55:42;2.90;99.90
19945;DHT22;10134;50.952;6.930;2023-02-26T08:58:10;2.90;99.90
19945;DHT22;10134;50.952;6.930;2023-02-26T09:00:38;3.00;99.90
19945;DHT22;10134;50.952;6.930;2023-02-26T09:03:05;3.00;99.90
19945;DHT22;10134;50.952;6.930;2023-02-26T09:05:32;3.00;99.90
19945;DHT22;10134;50.952;6.930;2023-02-26T09:08:00;3.10;99.90
19945;DHT22;10134;50.952;6.930;2023-02-26T09:10:28;3.10;99.90
19945;DHT22;10134;50.952;6.930;2023-02-26T09:12:56;3.20;99.90
19945;DHT22;10134;50.952;6.930;2023-02-26T09:15:23;3.20;99.90
19945;DHT22;10134;50.952;6.930;2023-02-26T09:17:51;3.20;99.90
19945;DHT22;10134;50.952;6.930;2023-02-26T09:20:18;3.20;99.90
19945;DHT22;10134;50.952;6.930;2023-02-26T09:22:45;3.30;99.90
19945;DHT22;10134;50.952;6.930;2023-02-26T09:25:13;3.30;99.90
19945;DHT22;10134;50.952;6.930;2023-02-26T09:27:41;3.40;99.90
19945;DHT22;10134;50.952;6.930;2023-02-26T09:30:09;3.40;99.90
19945;DHT22;10134;50.952;6.930;2023-02-26T09:32:37;3.50;99.90
19945;DHT22;10134;50.952;6.930;2023-02-26T09:35:04;3.50;99.90
19945;DHT22;10134;50.952;6.930;2023-02-26T09:37:32;3.60;99.90
19945;DHT22;10134;50.952;6.930;2023-02-26T09:40:00;3.60;99.90
19945;DHT22;10134;50.952;6.930;2023-02-26T09:42:59;3.70;99.90
19945;DHT22;10134;50.952;6.930;2023-02-26T09:45:37;3.90;99.90
19945;DHT22;10134;50.952;6.930;2023-02-26T09:48:06;4.00;99.30
19945;DHT22;10134;50.952;6.930;2023-02-26T09:50:44;4.10;98.90
19945;DHT22;10134;50.952;6.930;2023-02-26T09:53:36;4.20;98.00
19945;DHT22;10134;50.952;6.930;2023-02-26T09:56:12;4.30;97.30
19945;DHT22;10134;50.952;6.930;2023-02-26T09:58:42;4.40;96.80
19945;DHT22;10134;50.952;6.930;2023-02-26T10:01:15;4.40;96.30
19945;DHT22;10134;50.952;6.930;2023-02-26T10:06:34;4.60;95.60
19945;DHT22;10134;50.952;6.930;2023-02-26T10:09:36;4.70;95.50
19945;DHT22;10134;50.952;6.930;2023-02-26T10:12:22;4.80;94.70
19945;DHT22;10134;50.952;6.930;2023-02-26T10:15:07;4.80;93.60
19945;DHT22;10134;50.952;6.930;2023-02-26T10:20:39;4.90;93.10
19945;DHT22;10134;50.952;6.930;2023-02-26T10:23:19;5.00;92.70
19945;DHT22;10134;50.952;6.930;2023-02-26T10:26:10;5.10;91.60
19945;DHT22;10134;50.952;6.930;2023-02-26T10:31:41;5.20;91.30
19945;DHT22;10134;50.952;6.930;2023-02-26T10:34:14;5.30;90.70
19945;DHT22;10134;50.952;6.930;2023-02-26T10:39:46;5.40;90.50
19945;DHT22;10134;50.952;6.930;2023-02-26T10:42:22;5.40;88.70
19945;DHT22;10134;50.952;6.930;2023-02-26T10:47:38;5.50;86.20
19945;DHT22;10134;50.952;6.930;2023-02-26T10:50:12;5.60;85.10
19945;DHT22;10134;50.952;6.930;2023-02-26T10:52:43;5.70;84.00
19945;DHT22;10134;50.952;6.930;2023-02-26T10:55:33;5.70;83.30
19945;DHT22;10134;50.952;6.930;2023-02-26T10:58:13;5.80;82.90
19945;DHT22;10134;50.952;6.930;2023-02-26T11:00:43;5.80;82.70
19945;DHT22;10134;50.952;6.930;2023-02-26T11:03:17;5.90;83.10
19945;DHT22;10134;50.952;6.930;2023-02-26T11:05:46;5.90;83.00
19945;DHT22;10134;50.952;6.930;2023-02-26T11:08:19;6.00;82.50
19945;DHT22;10134;50.952;6.930;2023-02-26T11:10:58;6.00;81.90
19945;DHT22;10134;50.952;6.930;2023-02-26T11:13:27;6.00;81.60
19945;DHT22;10134;50.952;6.930;2023-02-26T11:15:57;5.90;82.30
19945;DHT22;10134;50.952;6.930;2023-02-26T11:18:34;5.90;81.70
19945;DHT22;10134;50.952;6.930;2023-02-26T11:21:04;5.70;81.60
19945;DHT22;10134;50.952;6.930;2023-02-26T11:23:32;5.60;82.00
19945;DHT22;10134;50.952;6.930;2023-02-26T11:26:06;5.60;81.70
19945;DHT22;10134;50.952;6.930;2023-02-26T11:28:35;5.60;82.30
19945;DHT22;10134;50.952;6.930;2023-02-26T11:31:08;5.70;81.30
19945;DHT22;10134;50.952;6.930;2023-02-26T11:33:39;5.60;81.10
19945;DHT22;10134;50.952;6.930;2023-02-26T11:36:16;5.60;81.40
19945;DHT22;10134;50.952;6.930;2023-02-26T11:38:51;5.60;81.60
19945;DHT22;10134;50.952;6.930;2023-02-26T11:41:19;5.60;81.70
19945;DHT22;10134;50.952;6.930;2023-02-26T11:44:00;5.60;81.80
19945;DHT22;10134;50.952;6.930;2023-02-26T11:46:28;5.50;81.10
19945;DHT22;10134;50.952;6.930;2023-02-26T11:48:59;5.50;80.30
19945;DHT22;10134;50.952;6.930;2023-02-26T11:51:28;5.50;79.50
19945;DHT22;10134;50.952;6.930;2023-02-26T11:53:57;5.40;79.10
19945;DHT22;10134;50.952;6.930;2023-02-26T11:56:36;5.40;79.70
19945;DHT22;10134;50.952;6.930;2023-02-26T11:59:19;5.30;79.30
19945;DHT22;10134;50.952;6.930;2023-02-26T12:01:48;5.30;79.70
19945;DHT22;10134;50.952;6.930;2023-02-26T12:04:21;5.30;80.50
19945;DHT22;10134;50.952;6.930;2023-02-26T12:06:51;5.30;80.80
19945;DHT22;10134;50.952;6.930;2023-02-26T12:09:19;5.40;81.10
19945;DHT22;10134;50.952;6.930;2023-02-26T12:12:09;5.40;80.00
19945;DHT22;10134;50.952;6.930;2023-02-26T12:14:50;5.40;78.10
19945;DHT22;10134;50.952;6.930;2023-02-26T12:23:26;5.40;77.20
19945;DHT22;10134;50.952;6.930;2023-02-26T12:28:51;5.50;78.90
19945;DHT22;10134;50.952;6.930;2023-02-26T12:35:14;5.70;77.40
19945;DHT22;10134;50.952;6.930;2023-02-26T12:59:43;5.60;74.30
19945;DHT22;10134;50.952;6.930;2023-02-26T13:11:20;5.50;73.60
19945;DHT22;10134;50.952;6.930;2023-02-26T13:19:43;5.60;74.40
19945;DHT22;10134;50.952;6.930;2023-02-26T13:25:03;5.60;72.30
19945;DHT22;10134;50.952;6.930;2023-02-26T13:27:34;5.60;72.70
19945;DHT22;10134;50.952;6.930;2023-02-26T13:32:37;5.80;71.70
19945;DHT22;10134;50.952;6.930;2023-02-26T13:35:15;6.00;70.90
19945;DHT22;10134;50.952;6.930;2023-02-26T13:37:50;6.10;70.70
19945;DHT22;10134;50.952;6.930;2023-02-26T13:43:09;6.20;70.90
19945;DHT22;10134;50.952;6.930;2023-02-26T13:48:35;6.40;72.70
19945;DHT22;10134;50.952;6.930;2023-02-26T13:51:43;6.40;72.00
19945;DHT22;10134;50.952;6.930;2023-02-26T14:04:57;6.20;70.60
19945;DHT22;10134;50.952;6.930;2023-02-26T14:07:44;6.20;71.60
19945;DHT22;10134;50.952;6.930;2023-02-26T14:10:49;6.30;71.10
19945;DHT22;10134;50.952;6.930;2023-02-26T14:13:19;6.40;70.20
19945;DHT22;10134;50.952;6.930;2023-02-26T14:24:37;6.60;68.70
19945;DHT22;10134;50.952;6.930;2023-02-26T14:35:18;6.60;67.90
19945;DHT22;10134;50.952;6.930;2023-02-26T14:38:03;6.60;68.40
19945;DHT22;10134;50.952;6.930;2023-02-26T14:40:37;6.60;68.90
19945;DHT22;10134;50.952;6.930;2023-02-26T14:43:15;6.60;69.10
19945;DHT22;10134;50.952;6.930;2023-02-26T14:45:45;6.60;69.00
19945;DHT22;10134;50.952;6.930;2023-02-26T14:48:16;6.60;69.20
19945;DHT22;10134;50.952;6.930;2023-02-26T15:00:35;6.40;68.60
19945;DHT22;10134;50.952;6.930;2023-02-26T15:03:21;6.30;67.70
19945;DHT22;10134;50.952;6.930;2023-02-26T15:08:30;6.20;67.60
19945;DHT22;10134;50.952;6.930;2023-02-26T15:16:55;6.20;68.20
19945;DHT22;10134;50.952;6.930;2023-02-26T15:24:44;6.20;68.60
19945;DHT22;10134;50.952;6.930;2023-02-26T15:27:15;6.10;68.70
19945;DHT22;10134;50.952;6.930;2023-02-26T15:29:45;6.10;69.50
19945;DHT22;10134;50.952;6.930;2023-02-26T15:35:20;6.00;69.20
19945;DHT22;10134;50.952;6.930;2023-02-26T15:37:50;6.00;69.50
19945;DHT22;10134;50.952;6.930;2023-02-26T15:40:19;6.00;68.90
19945;DHT22;10134;50.952;6.930;2023-02-26T15:42:53;6.00;68.80
19945;DHT22;10134;50.952;6.930;2023-02-26T15:45:37;6.00;68.50
19945;DHT22;10134;50.952;6.930;2023-02-26T15:48:25;6.00;68.50
19945;DHT22;10134;50.952;6.930;2023-02-26T15:50:58;5.90;68.20
19945;DHT22;10134;50.952;6.930;2023-02-26T15:53:31;6.00;68.50
19945;DHT22;10134;50.952;6.930;2023-02-26T15:56:02;5.90;68.40
19945;DHT22;10134;50.952;6.930;2023-02-26T15:58:41;5.90;68.40
19945;DHT22;10134;50.952;6.930;2023-02-26T16:01:18;5.90;68.40
19945;DHT22;10134;50.952;6.930;2023-02-26T16:03:48;5.90;68.40
19945;DHT22;10134;50.952;6.930;2023-02-26T16:06:22;5.90;68.60
19945;DHT22;10134;50.952;6.930;2023-02-26T16:08:50;5.90;68.80
19945;DHT22;10134;50.952;6.930;2023-02-26T16:11:19;5.80;68.60
19945;DHT22;10134;50.952;6.930;2023-02-26T16:13:50;5.70;69.00
19945;DHT22;10134;50.952;6.930;2023-02-26T16:16:25;5.60;68.90
19945;DHT22;10134;50.952;6.930;2023-02-26T16:18:54;5.60;69.10
19945;DHT22;10134;50.952;6.930;2023-02-26T16:21:30;5.50;69.00
19945;DHT22;10134;50.952;6.930;2023-02-26T16:24:00;5.60;69.50
19945;DHT22;10134;50.952;6.930;2023-02-26T16:26:33;5.60;69.50
19945;DHT22;10134;50.952;6.930;2023-02-26T16:29:11;5.60;69.50
19945;DHT22;10134;50.952;6.930;2023-02-26T16:31:40;5.50;69.80
19945;DHT22;10134;50.952;6.930;2023-02-26T16:34:34;5.50;69.90
19945;DHT22;10134;50.952;6.930;2023-02-26T16:37:33;5.50;69.90
19945;DHT22;10134;50.952;6.930;2023-02-26T16:40:39;5.40;69.80
19945;DHT22;10134;50.952;6.930;2023-02-26T16:46:09;5.30;70.30
19945;DHT22;10134;50.952;6.930;2023-02-26T16:48:54;5.30;70.20
19945;DHT22;10134;50.952;6.930;2023-02-26T16:51:24;5.20;70.10
19945;DHT22;10134;50.952;6.930;2023-02-26T16:53:55;5.20;70.90
19945;DHT22;10134;50.952;6.930;2023-02-26T16:56:28;5.20;71.30
19945;DHT22;10134;50.952;6.930;2023-02-26T16:59:22;5.10;70.90
19945;DHT22;10134;50.952;6.930;2023-02-26T17:02:14;5.10;71.10
19945;DHT22;10134;50.952;6.930;2023-02-26T17:04:48;5.00;72.20
19945;DHT22;10134;50.952;6.930;2023-02-26T17:10:07;5.00;72.10
19945;DHT22;10134;50.952;6.930;2023-02-26T17:12:47;4.90;72.30
19945;DHT22;10134;50.952;6.930;2023-02-26T17:15:27;5.00;72.50
19945;DHT22;10134;50.952;6.930;2023-02-26T17:17:59;4.90;72.60
19945;DHT22;10134;50.952;6.930;2023-02-26T17:20:28;4.90;73.00
19945;DHT22;10134;50.952;6.930;2023-02-26T17:22:57;4.90;73.00
19945;DHT22;10134;50.952;6.930;2023-02-26T17:25:32;4.90;73.30
19945;DHT22;10134;50.952;6.930;2023-02-26T17:28:00;4.80;73.60
19945;DHT22;10134;50.952;6.930;2023-02-26T17:30:28;4.80;73.70
19945;DHT22;10134;50.952;6.930;2023-02-26T17:33:00;4.80;73.70
19945;DHT22;10134;50.952;6.930;2023-02-26T17:35:30;4.80;73.70
19945;DHT22;10134;50.952;6.930;2023-02-26T17:37:58;4.70;73.80
19945;DHT22;10134;50.952;6.930;2023-02-26T17:40:30;4.70;74.00
19945;DHT22;10134;50.952;6.930;2023-02-26T17:43:00;4.70;74.00
19945;DHT22;10134;50.952;6.930;2023-02-26T17:45:31;4.60;74.40
19945;DHT22;10134;50.952;6.930;2023-02-26T17:48:00;4.60;74.50
19945;DHT22;10134;50.952;6.930;2023-02-26T17:50:47;4.60;74.70
19945;DHT22;10134;50.952;6.930;2023-02-26T17:53:18;4.60;74.80
19945;DHT22;10134;50.952;6.930;2023-02-26T17:55:46;4.50;74.80
19945;DHT22;10134;50.952;6.930;2023-02-26T17:58:18;4.50;75.00
19945;DHT22;10134;50.952;6.930;2023-02-26T18:00:48;4.40;75.20
19945;DHT22;10134;50.952;6.930;2023-02-26T18:03:19;4.40;75.50
19945;DHT22;10134;50.952;6.930;2023-02-26T18:05:48;4.40;75.70
19945;DHT22;10134;50.952;6.930;2023-02-26T18:10:53;4.30;76.30
19945;DHT22;10134;50.952;6.930;2023-02-26T18:13:21;4.30;76.60
19945;DHT22;10134;50.952;6.930;2023-02-26T18:15:49;4.30;77.00
19945;DHT22;10134;50.952;6.930;2023-02-26T18:18:17;4.30;77.00
19945;DHT22;10134;50.952;6.930;2023-02-26T18:20:46;4.30;77.10
19945;DHT22;10134;50.952;6.930;2023-02-26T18:23:14;4.30;77.30
19945;DHT22;10134;50.952;6.930;2023-02-26T18:25:44;4.20;77.10
19945;DHT22;10134;50.952;6.930;2023-02-26T18:28:24;4.20;77.20
19945;DHT22;10134;50.952;6.930;2023-02-26T18:30:55;4.20;77.30
19945;DHT22;10134;50.952;6.930;2023-02-26T18:33:24;4.20;78.10
19945;DHT22;10134;50.952;6.930;2023-02-26T18:35:54;4.10;77.70
19945;DHT22;10134;50.952;6.930;2023-02-26T18:38:25;4.20;77.70
19945;DHT22;10134;50.952;6.930;2023-02-26T18:40:53;4.20;77.60
19945;DHT22;10134;50.952;6.930;2023-02-26T18:43:21;4.10;77.40
19945;DHT22;10134;50.952;6.930;2023-02-26T18:45:49;4.20;77.50
19945;DHT22;10134;50.952;6.930;2023-02-26T18:48:19;4.20;77.60
19945;DHT22;10134;50.952;6.930;2023-02-26T18:50:47;4.10;77.50
19945;DHT22;10134;50.952;6.930;2023-02-26T18:53:15;4.10;77.10
19945;DHT22;10134;50.952;6.930;2023-02-26T18:55:43;4.10;77.50
19945;DHT22;10134;50.952;6.930;2023-02-26T18:58:11;4.00;77.50
19945;DHT22;10134;50.952;6.930;2023-02-26T19:00:39;4.00;77.70
19945;DHT22;10134;50.952;6.930;2023-02-26T19:03:07;4.00;77.70
19945;DHT22;10134;50.952;6.930;2023-02-26T19:05:35;4.00;77.80
19945;DHT22;10134;50.952;6.930;2023-02-26T19:08:04;4.00;77.90
19945;DHT22;10134;50.952;6.930;2023-02-26T19:10:31;3.90;77.80
19945;DHT22;10134;50.952;6.930;2023-02-26T19:13:00;3.90;78.10
19945;DHT22;10134;50.952;6.930;2023-02-26T19:15:29;3.80;78.10
19945;DHT22;10134;50.952;6.930;2023-02-26T19:17:56;3.80;78.20
19945;DHT22;10134;50.952;6.930;2023-02-26T19:20:24;3.80;78.40